PAEN/ENA METAR and TAF weather

Enter ICAO airport designator
Station Type Date Time Source
PAEN METAR 2021/05/13 04:53 UTC NOAA

PAEN 130453Z 20011KT 10SM BKN060 OVC085 06/03 A3014 RMK AO2 SLP209 T00610028


Station Type Date Time Source
PAEN Decoded METAR 2021/05/13 04:53 UTC NOAA

KENAI MUNICIPAL AIRPORT, AK, United States (PAEN) 60-35N 151-14W 25M
May 13, 2021 - 12:53 AM EDT / 2021.05.13 0453 UTC
Wind: from the SSW (200 degrees) at 13 MPH (11 KT):0
Visibility: 10 mile(s):0
Sky conditions: overcast
Temperature: 43.0 F (6.1 C)
Dew Point: 37.0 F (2.8 C)
Relative Humidity: 79%
Pressure (altimeter): 30.14 in. Hg (1020 hPa)
ob: PAEN 130453Z 20011KT 10SM BKN060 OVC085 06/03 A3014 RMK AO2 SLP209 T00610028
cycle: 5

Station Type Date Time Source
PAEN TAF 2021/05/13 06:30 UTC NOAA

TAF PAEN 130526Z 1306/1406 30008KT P6SM VCSH BKN060 BKN080
FM130900 22006KT P6SM OVC080
FM132100 30005KT P6SM SCT080

Example: see airport list